sensor_id;sensor_type;location;lat;lon;timestamp;pressure;altitude;pressure_sealevel;temperature;humidity
76257;BME280;65074;50.436;8.672;2022-11-25T00:00:46;99334.63;;;2.01;100.00
76257;BME280;65074;50.436;8.672;2022-11-25T00:03:12;99335.31;;;2.10;100.00
76257;BME280;65074;50.436;8.672;2022-11-25T00:05:37;99337.34;;;2.14;100.00
76257;BME280;65074;50.436;8.672;2022-11-25T00:08:03;99338.41;;;2.20;100.00
76257;BME280;65074;50.436;8.672;2022-11-25T00:10:28;99331.94;;;2.35;100.00
76257;BME280;65074;50.436;8.672;2022-11-25T00:12:54;99331.75;;;2.37;100.00
76257;BME280;65074;50.436;8.672;2022-11-25T00:15:19;99326.94;;;2.60;100.00
76257;BME280;65074;50.436;8.672;2022-11-25T00:17:45;99324.03;;;2.48;100.00
76257;BME280;65074;50.436;8.672;2022-11-25T00:20:10;99327.69;;;2.41;100.00
76257;BME280;65074;50.436;8.672;2022-11-25T00:22:36;99324.56;;;2.31;100.00
76257;BME280;65074;50.436;8.672;2022-11-25T00:25:02;99321.16;;;2.37;100.00
76257;BME280;65074;50.436;8.672;2022-11-25T00:27:27;99317.69;;;2.43;100.00
76257;BME280;65074;50.436;8.672;2022-11-25T00:29:53;99312.19;;;2.44;100.00
76257;BME280;65074;50.436;8.672;2022-11-25T00:32:18;99319.09;;;2.39;100.00
76257;BME280;65074;50.436;8.672;2022-11-25T00:34:43;99323.56;;;2.32;100.00
76257;BME280;65074;50.436;8.672;2022-11-25T00:37:09;99313.72;;;2.26;100.00
76257;BME280;65074;50.436;8.672;2022-11-25T00:39:36;99318.44;;;2.30;100.00
76257;BME280;65074;50.436;8.672;2022-11-25T00:42:02;99320.53;;;2.41;100.00
76257;BME280;65074;50.436;8.672;2022-11-25T00:44:46;99320.72;;;2.40;100.00
76257;BME280;65074;50.436;8.672;2022-11-25T00:47:19;99312.59;;;2.48;100.00
76257;BME280;65074;50.436;8.672;2022-11-25T00:49:47;99321.38;;;2.42;100.00
76257;BME280;65074;50.436;8.672;2022-11-25T00:52:15;99319.41;;;2.63;100.00
76257;BME280;65074;50.436;8.672;2022-11-25T00:54:42;99319.56;;;2.55;100.00
76257;BME280;65074;50.436;8.672;2022-11-25T00:57:10;99314.03;;;2.50;100.00
76257;BME280;65074;50.436;8.672;2022-11-25T00:59:36;99319.94;;;2.46;100.00
76257;BME280;65074;50.436;8.672;2022-11-25T01:02:02;99316.28;;;2.53;100.00
76257;BME280;65074;50.436;8.672;2022-11-25T01:04:27;99329.34;;;2.48;100.00
76257;BME280;65074;50.436;8.672;2022-11-25T01:06:53;99326.25;;;2.45;100.00
76257;BME280;65074;50.436;8.672;2022-11-25T01:09:21;99328.53;;;2.48;100.00
76257;BME280;65074;50.436;8.672;2022-11-25T01:11:49;99321.56;;;2.47;100.00
76257;BME280;65074;50.436;8.672;2022-11-25T01:14:14;99327.53;;;2.49;100.00
76257;BME280;65074;50.436;8.672;2022-11-25T01:16:40;99325.25;;;2.46;100.00
76257;BME280;65074;50.436;8.672;2022-11-25T01:19:06;99314.81;;;2.38;100.00
76257;BME280;65074;50.436;8.672;2022-11-25T01:21:33;99320.09;;;2.38;100.00
76257;BME280;65074;50.436;8.672;2022-11-25T01:23:59;99318.13;;;2.46;100.00
76257;BME280;65074;50.436;8.672;2022-11-25T01:26:26;99316.53;;;2.58;100.00
76257;BME280;65074;50.436;8.672;2022-11-25T01:28:53;99315.69;;;2.51;100.00
76257;BME280;65074;50.436;8.672;2022-11-25T01:31:21;99328.13;;;2.44;100.00
76257;BME280;65074;50.436;8.672;2022-11-25T01:33:53;99323.59;;;2.38;100.00
76257;BME280;65074;50.436;8.672;2022-11-25T01:36:19;99323.34;;;2.27;100.00
76257;BME280;65074;50.436;8.672;2022-11-25T01:38:49;99322.50;;;2.26;100.00
76257;BME280;65074;50.436;8.672;2022-11-25T01:41:15;99315.31;;;2.20;100.00
76257;BME280;65074;50.436;8.672;2022-11-25T01:43:41;99320.25;;;2.23;100.00
76257;BME280;65074;50.436;8.672;2022-11-25T01:46:13;99323.47;;;2.12;100.00
76257;BME280;65074;50.436;8.672;2022-11-25T01:48:49;99316.75;;;2.16;100.00
76257;BME280;65074;50.436;8.672;2022-11-25T01:51:23;99318.66;;;2.29;100.00
76257;BME280;65074;50.436;8.672;2022-11-25T01:53:51;99313.56;;;2.34;100.00
76257;BME280;65074;50.436;8.672;2022-11-25T01:56:18;99308.66;;;2.37;100.00
76257;BME280;65074;50.436;8.672;2022-11-25T01:58:45;99299.25;;;2.35;100.00
76257;BME280;65074;50.436;8.672;2022-11-25T02:01:12;99300.69;;;2.37;100.00
76257;BME280;65074;50.436;8.672;2022-11-25T02:03:42;99318.34;;;2.51;100.00
76257;BME280;65074;50.436;8.672;2022-11-25T02:08:47;99311.44;;;2.63;100.00
76257;BME280;65074;50.436;8.672;2022-11-25T02:11:14;99303.03;;;2.53;100.00
76257;BME280;65074;50.436;8.672;2022-11-25T02:13:42;99299.75;;;2.58;100.00
76257;BME280;65074;50.436;8.672;2022-11-25T02:16:07;99291.41;;;2.61;100.00
76257;BME280;65074;50.436;8.672;2022-11-25T02:18:33;99298.31;;;2.55;100.00
76257;BME280;65074;50.436;8.672;2022-11-25T02:20:59;99292.78;;;2.50;100.00
76257;BME280;65074;50.436;8.672;2022-11-25T02:23:38;99301.19;;;2.60;100.00
76257;BME280;65074;50.436;8.672;2022-11-25T02:26:08;99299.53;;;2.53;100.00
76257;BME280;65074;50.436;8.672;2022-11-25T02:28:34;99293.84;;;2.56;100.00
76257;BME280;65074;50.436;8.672;2022-11-25T02:31:02;99295.50;;;2.63;100.00
76257;BME280;65074;50.436;8.672;2022-11-25T02:33:27;99296.25;;;2.44;100.00
76257;BME280;65074;50.436;8.672;2022-11-25T02:35:57;99288.84;;;2.33;100.00
76257;BME280;65074;50.436;8.672;2022-11-25T02:38:46;99293.94;;;2.28;100.00
76257;BME280;65074;50.436;8.672;2022-11-25T02:41:31;99292.50;;;2.32;100.00
76257;BME280;65074;50.436;8.672;2022-11-25T02:43:59;99287.84;;;2.34;100.00
76257;BME280;65074;50.436;8.672;2022-11-25T02:46:26;99284.16;;;2.35;100.00
76257;BME280;65074;50.436;8.672;2022-11-25T02:48:54;99284.31;;;2.27;100.00
76257;BME280;65074;50.436;8.672;2022-11-25T02:51:22;99290.22;;;2.23;100.00
76257;BME280;65074;50.436;8.672;2022-11-25T02:53:48;99286.34;;;2.19;100.00
76257;BME280;65074;50.436;8.672;2022-11-25T02:56:15;99282.63;;;2.07;100.00
76257;BME280;65074;50.436;8.672;2022-11-25T02:58:41;99280.94;;;1.99;100.00
76257;BME280;65074;50.436;8.672;2022-11-25T03:01:07;99279.47;;;1.90;100.00
76257;BME280;65074;50.436;8.672;2022-11-25T03:03:33;99285.94;;;1.81;100.00
76257;BME280;65074;50.436;8.672;2022-11-25T03:05:59;99286.16;;;1.79;100.00
76257;BME280;65074;50.436;8.672;2022-11-25T03:08:24;99287.97;;;1.79;100.00
76257;BME280;65074;50.436;8.672;2022-11-25T03:10:51;99283.09;;;1.82;100.00
76257;BME280;65074;50.436;8.672;2022-11-25T03:13:16;99286.75;;;1.81;100.00
76257;BME280;65074;50.436;8.672;2022-11-25T03:15:42;99287.38;;;1.83;100.00
76257;BME280;65074;50.436;8.672;2022-11-25T03:18:07;99296.13;;;1.77;100.00
76257;BME280;65074;50.436;8.672;2022-11-25T03:20:34;99290.34;;;1.67;100.00
76257;BME280;65074;50.436;8.672;2022-11-25T03:23:02;99292.31;;;1.59;100.00
76257;BME280;65074;50.436;8.672;2022-11-25T03:25:28;99289.25;;;1.55;100.00
76257;BME280;65074;50.436;8.672;2022-11-25T03:27:54;99295.94;;;1.51;100.00
76257;BME280;65074;50.436;8.672;2022-11-25T03:30:23;99296.31;;;1.48;100.00
76257;BME280;65074;50.436;8.672;2022-11-25T03:32:52;99294.25;;;1.44;100.00
76257;BME280;65074;50.436;8.672;2022-11-25T03:35:17;99290.00;;;1.49;100.00
76257;BME280;65074;50.436;8.672;2022-11-25T03:37:43;99284.50;;;1.51;100.00
76257;BME280;65074;50.436;8.672;2022-11-25T03:40:11;99277.69;;;1.63;100.00
76257;BME280;65074;50.436;8.672;2022-11-25T03:42:38;99272.88;;;1.79;100.00
76257;BME280;65074;50.436;8.672;2022-11-25T03:45:06;99271.81;;;1.74;100.00
76257;BME280;65074;50.436;8.672;2022-11-25T03:47:33;99271.06;;;1.80;100.00
76257;BME280;65074;50.436;8.672;2022-11-25T03:49:59;99283.50;;;1.79;100.00
76257;BME280;65074;50.436;8.672;2022-11-25T03:52:24;99289.25;;;1.89;100.00
76257;BME280;65074;50.436;8.672;2022-11-25T03:54:50;99280.09;;;1.92;100.00
76257;BME280;65074;50.436;8.672;2022-11-25T03:57:19;99293.59;;;1.97;100.00
76257;BME280;65074;50.436;8.672;2022-11-25T03:59:44;99290.31;;;1.95;100.00
76257;BME280;65074;50.436;8.672;2022-11-25T04:02:10;99283.16;;;1.95;100.00
76257;BME280;65074;50.436;8.672;2022-11-25T04:04:35;99278.47;;;1.97;100.00
76257;BME280;65074;50.436;8.672;2022-11-25T04:07:01;99271.34;;;1.98;100.00
76257;BME280;65074;50.436;8.672;2022-11-25T04:09:26;99290.38;;;2.08;100.00
76257;BME280;65074;50.436;8.672;2022-11-25T04:11:53;99275.72;;;2.12;100.00
76257;BME280;65074;50.436;8.672;2022-11-25T04:14:49;99277.78;;;2.17;100.00
76257;BME280;65074;50.436;8.672;2022-11-25T04:17:14;99276.13;;;2.16;100.00
76257;BME280;65074;50.436;8.672;2022-11-25T04:19:39;99272.88;;;2.20;100.00
76257;BME280;65074;50.436;8.672;2022-11-25T04:22:05;99270.88;;;2.35;100.00
76257;BME280;65074;50.436;8.672;2022-11-25T04:24:33;99272.75;;;2.41;100.00
76257;BME280;65074;50.436;8.672;2022-11-25T04:27:00;99269.72;;;2.51;100.00
76257;BME280;65074;50.436;8.672;2022-11-25T04:29:26;99276.06;;;2.56;100.00
76257;BME280;65074;50.436;8.672;2022-11-25T04:31:52;99280.13;;;2.52;100.00
76257;BME280;65074;50.436;8.672;2022-11-25T04:34:17;99281.78;;;2.60;100.00
76257;BME280;65074;50.436;8.672;2022-11-25T04:36:45;99281.41;;;2.63;100.00
76257;BME280;65074;50.436;8.672;2022-11-25T04:39:11;99291.41;;;2.61;100.00
76257;BME280;65074;50.436;8.672;2022-11-25T04:41:36;99289.97;;;2.58;100.00
76257;BME280;65074;50.436;8.672;2022-11-25T04:44:02;99279.97;;;2.60;100.00
76257;BME280;65074;50.436;8.672;2022-11-25T04:46:33;99278.72;;;2.56;100.00
76257;BME280;65074;50.436;8.672;2022-11-25T04:49:01;99275.03;;;2.57;100.00
76257;BME280;65074;50.436;8.672;2022-11-25T04:51:26;99277.91;;;2.56;100.00
76257;BME280;65074;50.436;8.672;2022-11-25T04:53:56;99278.31;;;2.59;100.00
76257;BME280;65074;50.436;8.672;2022-11-25T04:56:23;99280.59;;;2.69;100.00
76257;BME280;65074;50.436;8.672;2022-11-25T04:58:51;99281.22;;;2.71;100.00
76257;BME280;65074;50.436;8.672;2022-11-25T05:01:39;99281.22;;;2.71;100.00
76257;BME280;65074;50.436;8.672;2022-11-25T05:04:17;99288.38;;;2.71;100.00
76257;BME280;65074;50.436;8.672;2022-11-25T05:06:42;99286.94;;;2.68;100.00
76257;BME280;65074;50.436;8.672;2022-11-25T05:09:08;99292.63;;;2.72;100.00
76257;BME280;65074;50.436;8.672;2022-11-25T05:11:36;99289.19;;;2.84;100.00
76257;BME280;65074;50.436;8.672;2022-11-25T05:14:02;99286.56;;;2.91;100.00
76257;BME280;65074;50.436;8.672;2022-11-25T05:16:27;99291.28;;;2.95;100.00
76257;BME280;65074;50.436;8.672;2022-11-25T05:18:54;99292.09;;;2.96;100.00
76257;BME280;65074;50.436;8.672;2022-11-25T05:21:29;99292.28;;;2.94;100.00
76257;BME280;65074;50.436;8.672;2022-11-25T05:23:57;99286.78;;;2.96;100.00
76257;BME280;65074;50.436;8.672;2022-11-25T05:26:25;99291.06;;;2.97;100.00
76257;BME280;65074;50.436;8.672;2022-11-25T05:28:52;99290.44;;;3.01;100.00
76257;BME280;65074;50.436;8.672;2022-11-25T05:31:18;99300.69;;;3.04;100.00
76257;BME280;65074;50.436;8.672;2022-11-25T05:33:43;99297.63;;;3.07;100.00
76257;BME280;65074;50.436;8.672;2022-11-25T05:36:09;99295.59;;;3.16;100.00
76257;BME280;65074;50.436;8.672;2022-11-25T05:38:45;99298.22;;;3.09;100.00
76257;BME280;65074;50.436;8.672;2022-11-25T05:41:15;99297.03;;;3.18;100.00
76257;BME280;65074;50.436;8.672;2022-11-25T05:43:42;99288.22;;;3.11;100.00
76257;BME280;65074;50.436;8.672;2022-11-25T05:46:08;99296.38;;;3.16;100.00
76257;BME280;65074;50.436;8.672;2022-11-25T05:48:37;99300.09;;;3.22;100.00
76257;BME280;65074;50.436;8.672;2022-11-25T05:51:04;99287.00;;;3.27;100.00
76257;BME280;65074;50.436;8.672;2022-11-25T05:53:31;99299.69;;;3.25;100.00
76257;BME280;65074;50.436;8.672;2022-11-25T05:55:59;99294.75;;;3.22;100.00
76257;BME280;65074;50.436;8.672;2022-11-25T05:58:43;99297.03;;;3.25;100.00
76257;BME280;65074;50.436;8.672;2022-11-25T06:01:10;99289.66;;;3.27;100.00
76257;BME280;65074;50.436;8.672;2022-11-25T06:03:37;99297.03;;;3.25;100.00
76257;BME280;65074;50.436;8.672;2022-11-25T06:06:08;99298.44;;;3.21;100.00
76257;BME280;65074;50.436;8.672;2022-11-25T06:08:35;99300.91;;;3.22;100.00
76257;BME280;65074;50.436;8.672;2022-11-25T06:11:09;99297.63;;;3.20;100.00
76257;BME280;65074;50.436;8.672;2022-11-25T06:13:37;99297.41;;;3.22;100.00
76257;BME280;65074;50.436;8.672;2022-11-25T06:16:11;99305.00;;;3.25;100.00
76257;BME280;65074;50.436;8.672;2022-11-25T06:18:36;99311.56;;;3.36;100.00
76257;BME280;65074;50.436;8.672;2022-11-25T06:21:07;99322.19;;;3.42;100.00
76257;BME280;65074;50.436;8.672;2022-11-25T06:23:33;99324.22;;;3.47;100.00
76257;BME280;65074;50.436;8.672;2022-11-25T06:26:13;99322.59;;;3.39;100.00
76257;BME280;65074;50.436;8.672;2022-11-25T06:28:38;99332.59;;;3.44;100.00
76257;BME280;65074;50.436;8.672;2022-11-25T06:31:10;99324.00;;;3.42;100.00
76257;BME280;65074;50.436;8.672;2022-11-25T06:33:41;99331.41;;;3.53;100.00
76257;BME280;65074;50.436;8.672;2022-11-25T06:36:10;99329.13;;;3.56;100.00
76257;BME280;65074;50.436;8.672;2022-11-25T06:38:44;99335.88;;;3.65;100.00
76257;BME280;65074;50.436;8.672;2022-11-25T06:41:11;99339.16;;;3.67;100.00
76257;BME280;65074;50.436;8.672;2022-11-25T06:43:36;99337.50;;;3.66;100.00
76257;BME280;65074;50.436;8.672;2022-11-25T06:46:04;99329.94;;;3.63;100.00
76257;BME280;65074;50.436;8.672;2022-11-25T06:48:30;99325.63;;;3.56;100.00
76257;BME280;65074;50.436;8.672;2022-11-25T06:50:57;99331.38;;;3.59;100.00
76257;BME280;65074;50.436;8.672;2022-11-25T06:53:23;99333.03;;;3.60;100.00
76257;BME280;65074;50.436;8.672;2022-11-25T06:56:00;99332.00;;;3.61;100.00
76257;BME280;65074;50.436;8.672;2022-11-25T06:58:26;99337.72;;;3.58;100.00
76257;BME280;65074;50.436;8.672;2022-11-25T07:00:51;99334.66;;;3.55;100.00
76257;BME280;65074;50.436;8.672;2022-11-25T07:03:16;99340.81;;;3.55;100.00
76257;BME280;65074;50.436;8.672;2022-11-25T07:05:42;99353.66;;;3.58;100.00
76257;BME280;65074;50.436;8.672;2022-11-25T07:08:07;99345.28;;;3.61;100.00
76257;BME280;65074;50.436;8.672;2022-11-25T07:10:33;99348.34;;;3.71;100.00
76257;BME280;65074;50.436;8.672;2022-11-25T07:12:59;99342.38;;;3.95;100.00
76257;BME280;65074;50.436;8.672;2022-11-25T07:15:24;99337.69;;;4.04;100.00
76257;BME280;65074;50.436;8.672;2022-11-25T07:17:49;99345.84;;;4.03;100.00
76257;BME280;65074;50.436;8.672;2022-11-25T07:20:15;99338.50;;;3.98;100.00
76257;BME280;65074;50.436;8.672;2022-11-25T07:22:40;99337.44;;;4.06;100.00
76257;BME280;65074;50.436;8.672;2022-11-25T07:25:06;99343.00;;;4.04;100.00
76257;BME280;65074;50.436;8.672;2022-11-25T07:27:33;99348.09;;;4.06;100.00
76257;BME280;65074;50.436;8.672;2022-11-25T07:29:58;99341.34;;;4.10;100.00
76257;BME280;65074;50.436;8.672;2022-11-25T07:32:24;99341.13;;;4.11;100.00
76257;BME280;65074;50.436;8.672;2022-11-25T07:34:49;99336.81;;;4.10;100.00
76257;BME280;65074;50.436;8.672;2022-11-25T07:37:15;99342.78;;;4.12;100.00
76257;BME280;65074;50.436;8.672;2022-11-25T07:39:42;99348.31;;;4.17;100.00
76257;BME280;65074;50.436;8.672;2022-11-25T07:42:07;99347.22;;;4.25;100.00
76257;BME280;65074;50.436;8.672;2022-11-25T07:44:32;99352.34;;;4.33;100.00
76257;BME280;65074;50.436;8.672;2022-11-25T07:47:07;99361.13;;;4.40;100.00
76257;BME280;65074;50.436;8.672;2022-11-25T07:49:33;99355.16;;;4.44;100.00
76257;BME280;65074;50.436;8.672;2022-11-25T07:51:58;99362.91;;;4.52;100.00
76257;BME280;65074;50.436;8.672;2022-11-25T07:54:25;99368.63;;;4.63;100.00
76257;BME280;65074;50.436;8.672;2022-11-25T07:56:50;99360.59;;;4.69;100.00
76257;BME280;65074;50.436;8.672;2022-11-25T07:59:18;99365.28;;;4.80;100.00
76257;BME280;65074;50.436;8.672;2022-11-25T08:01:44;99370.38;;;4.88;100.00
76257;BME280;65074;50.436;8.672;2022-11-25T08:04:11;99358.84;;;4.94;100.00
76257;BME280;65074;50.436;8.672;2022-11-25T08:06:39;99367.19;;;5.04;100.00
76257;BME280;65074;50.436;8.672;2022-11-25T08:09:07;99368.19;;;5.10;100.00
76257;BME280;65074;50.436;8.672;2022-11-25T08:11:33;99377.22;;;5.09;100.00
76257;BME280;65074;50.436;8.672;2022-11-25T08:13:59;99380.06;;;5.14;100.00
76257;BME280;65074;50.436;8.672;2022-11-25T08:16:26;99378.03;;;5.16;100.00
76257;BME280;65074;50.436;8.672;2022-11-25T08:18:53;99374.06;;;5.18;100.00
76257;BME280;65074;50.436;8.672;2022-11-25T08:21:19;99379.38;;;5.25;100.00
76257;BME280;65074;50.436;8.672;2022-11-25T08:23:45;99377.91;;;5.36;100.00
76257;BME280;65074;50.436;8.672;2022-11-25T08:26:22;99385.91;;;5.36;100.00
76257;BME280;65074;50.436;8.672;2022-11-25T08:28:48;99380.09;;;5.45;100.00
76257;BME280;65074;50.436;8.672;2022-11-25T08:31:17;99373.88;;;5.51;100.00
76257;BME280;65074;50.436;8.672;2022-11-25T08:33:43;99379.59;;;5.55;100.00
76257;BME280;65074;50.436;8.672;2022-11-25T08:36:09;99375.63;;;5.64;100.00
76257;BME280;65074;50.436;8.672;2022-11-25T08:38:35;99378.72;;;5.61;100.00
76257;BME280;65074;50.436;8.672;2022-11-25T08:41:00;99374.78;;;5.63;100.00
76257;BME280;65074;50.436;8.672;2022-11-25T08:43:26;99376.66;;;5.63;100.00
76257;BME280;65074;50.436;8.672;2022-11-25T08:45:52;99386.28;;;5.64;100.00
76257;BME280;65074;50.436;8.672;2022-11-25T08:48:19;99392.22;;;5.66;100.00
76257;BME280;65074;50.436;8.672;2022-11-25T08:50:51;99394.25;;;5.70;100.00
76257;BME280;65074;50.436;8.672;2022-11-25T08:53:17;99405.72;;;5.71;100.00
76257;BME280;65074;50.436;8.672;2022-11-25T08:55:44;99395.22;;;5.76;100.00
76257;BME280;65074;50.436;8.672;2022-11-25T08:58:10;99401.97;;;5.85;100.00
76257;BME280;65074;50.436;8.672;2022-11-25T09:00:39;99405.25;;;5.87;100.00
76257;BME280;65074;50.436;8.672;2022-11-25T09:03:05;99409.34;;;5.89;100.00
76257;BME280;65074;50.436;8.672;2022-11-25T09:05:30;99415.84;;;5.94;100.00
76257;BME280;65074;50.436;8.672;2022-11-25T09:08:04;99418.91;;;5.97;100.00
76257;BME280;65074;50.436;8.672;2022-11-25T09:10:29;99412.34;;;6.00;100.00
76257;BME280;65074;50.436;8.672;2022-11-25T09:12:55;99412.53;;;5.98;100.00
76257;BME280;65074;50.436;8.672;2022-11-25T09:15:21;99413.94;;;6.01;100.00
76257;BME280;65074;50.436;8.672;2022-11-25T09:17:46;99408.25;;;5.97;100.00
76257;BME280;65074;50.436;8.672;2022-11-25T09:20:12;99423.00;;;6.00;100.00
76257;BME280;65074;50.436;8.672;2022-11-25T09:22:37;99425.38;;;6.08;100.00
76257;BME280;65074;50.436;8.672;2022-11-25T09:25:04;99423.25;;;6.16;100.00
76257;BME280;65074;50.436;8.672;2022-11-25T09:27:30;99427.50;;;6.24;100.00
76257;BME280;65074;50.436;8.672;2022-11-25T09:29:56;99433.53;;;6.37;100.00
76257;BME280;65074;50.436;8.672;2022-11-25T09:32:21;99429.09;;;6.49;100.00
76257;BME280;65074;50.436;8.672;2022-11-25T09:34:47;99436.81;;;6.57;100.00
76257;BME280;65074;50.436;8.672;2022-11-25T09:37:12;99438.25;;;6.60;100.00
76257;BME280;65074;50.436;8.672;2022-11-25T09:39:38;99441.97;;;6.59;100.00
76257;BME280;65074;50.436;8.672;2022-11-25T09:42:29;99447.97;;;6.73;100.00
76257;BME280;65074;50.436;8.672;2022-11-25T09:45:22;99444.88;;;6.76;100.00
76257;BME280;65074;50.436;8.672;2022-11-25T09:48:25;99443.44;;;6.73;100.00
76257;BME280;65074;50.436;8.672;2022-11-25T09:51:20;99439.66;;;6.81;100.00
76257;BME280;65074;50.436;8.672;2022-11-25T09:54:15;99454.66;;;6.82;100.00
76257;BME280;65074;50.436;8.672;2022-11-25T09:56:57;99445.22;;;6.79;100.00
76257;BME280;65074;50.436;8.672;2022-11-25T09:59:27;99457.56;;;6.80;100.00
76257;BME280;65074;50.436;8.672;2022-11-25T10:01:59;99453.09;;;6.74;100.00
76257;BME280;65074;50.436;8.672;2022-11-25T10:04:33;99459.19;;;6.81;100.00
76257;BME280;65074;50.436;8.672;2022-11-25T10:07:03;99459.34;;;6.86;100.00
76257;BME280;65074;50.436;8.672;2022-11-25T10:09:33;99453.09;;;6.92;100.00
76257;BME280;65074;50.436;8.672;2022-11-25T10:12:04;99458.59;;;6.97;100.00
76257;BME280;65074;50.436;8.672;2022-11-25T10:14:38;99456.59;;;7.11;100.00
76257;BME280;65074;50.436;8.672;2022-11-25T10:17:16;99462.06;;;7.16;100.00
76257;BME280;65074;50.436;8.672;2022-11-25T10:22:40;99466.22;;;7.12;100.00
76257;BME280;65074;50.436;8.672;2022-11-25T10:25:15;99470.91;;;7.16;100.00
76257;BME280;65074;50.436;8.672;2022-11-25T10:27:45;99475.72;;;7.26;100.00
76257;BME280;65074;50.436;8.672;2022-11-25T10:33:20;99483.97;;;7.25;100.00
76257;BME280;65074;50.436;8.672;2022-11-25T10:38:25;99480.00;;;7.15;100.00
76257;BME280;65074;50.436;8.672;2022-11-25T10:40:53;99491.41;;;7.04;100.00
76257;BME280;65074;50.436;8.672;2022-11-25T10:43:19;99483.97;;;7.06;100.00
76257;BME280;65074;50.436;8.672;2022-11-25T10:45:54;99485.41;;;7.09;100.00
76257;BME280;65074;50.436;8.672;2022-11-25T10:51:45;99490.75;;;7.27;100.00
76257;BME280;65074;50.436;8.672;2022-11-25T10:54:15;99492.66;;;7.38;100.00
76257;BME280;65074;50.436;8.672;2022-11-25T10:59:20;99491.91;;;7.49;100.00
76257;BME280;65074;50.436;8.672;2022-11-25T11:01:46;99493.34;;;7.63;100.00
76257;BME280;65074;50.436;8.672;2022-11-25T11:04:12;99500.25;;;7.71;100.00
76257;BME280;65074;50.436;8.672;2022-11-25T11:06:44;99505.72;;;7.76;100.00
76257;BME280;65074;50.436;8.672;2022-11-25T11:09:37;99500.31;;;7.82;100.00
76257;BME280;65074;50.436;8.672;2022-11-25T11:12:24;99503.44;;;7.79;100.00
76257;BME280;65074;50.436;8.672;2022-11-25T11:15:12;99507.38;;;7.77;100.00
76257;BME280;65074;50.436;8.672;2022-11-25T11:17:38;99502.09;;;7.70;100.00
76257;BME280;65074;50.436;8.672;2022-11-25T11:22:45;99520.88;;;8.12;100.00
76257;BME280;65074;50.436;8.672;2022-11-25T11:27:46;99517.81;;;7.97;100.00
76257;BME280;65074;50.436;8.672;2022-11-25T11:30:16;99530.97;;;7.98;100.00
76257;BME280;65074;50.436;8.672;2022-11-25T11:32:54;99529.88;;;7.87;100.00
76257;BME280;65074;50.436;8.672;2022-11-25T11:35:28;99527.44;;;7.98;100.00
76257;BME280;65074;50.436;8.672;2022-11-25T11:38:03;99521.44;;;8.02;100.00
76257;BME280;65074;50.436;8.672;2022-11-25T11:40:55;99529.34;;;8.27;100.00
76257;BME280;65074;50.436;8.672;2022-11-25T11:43:32;99528.97;;;8.35;100.00
76257;BME280;65074;50.436;8.672;2022-11-25T11:51:54;99531.59;;;8.76;100.00
76257;BME280;65074;50.436;8.672;2022-11-25T11:56:56;99537.63;;;8.95;100.00
76257;BME280;65074;50.436;8.672;2022-11-25T11:59:50;99534.00;;;9.12;98.84
76257;BME280;65074;50.436;8.672;2022-11-25T12:07:35;99553.91;;;9.79;95.75
76257;BME280;65074;50.436;8.672;2022-11-25T12:15:27;99558.94;;;10.04;94.73
76257;BME280;65074;50.436;8.672;2022-11-25T12:18:02;99560.78;;;9.75;95.33
76257;BME280;65074;50.436;8.672;2022-11-25T12:20:36;99558.50;;;9.67;96.54
76257;BME280;65074;50.436;8.672;2022-11-25T12:23:15;99560.47;;;9.72;95.83
76257;BME280;65074;50.436;8.672;2022-11-25T12:25:44;99552.06;;;9.68;95.45
76257;BME280;65074;50.436;8.672;2022-11-25T12:28:37;99559.22;;;9.91;94.36
76257;BME280;65074;50.436;8.672;2022-11-25T12:31:17;99552.03;;;9.40;96.59
76257;BME280;65074;50.436;8.672;2022-11-25T12:36:30;99561.41;;;9.77;96.46
76257;BME280;65074;50.436;8.672;2022-11-25T12:41:53;99581.72;;;10.30;93.64
76257;BME280;65074;50.436;8.672;2022-11-25T12:44:21;99580.38;;;9.88;95.35
76257;BME280;65074;50.436;8.672;2022-11-25T12:46:51;99577.66;;;9.99;94.74
76257;BME280;65074;50.436;8.672;2022-11-25T12:49:20;99585.88;;;10.21;94.33
76257;BME280;65074;50.436;8.672;2022-11-25T12:51:59;99580.47;;;10.49;93.08
76257;BME280;65074;50.436;8.672;2022-11-25T12:57:49;99586.66;;;10.83;92.14
76257;BME280;65074;50.436;8.672;2022-11-25T13:00:24;99593.19;;;10.54;92.45
76257;BME280;65074;50.436;8.672;2022-11-25T13:13:52;99610.59;;;9.66;97.42
76257;BME280;65074;50.436;8.672;2022-11-25T13:16:22;99614.34;;;9.54;97.38
76257;BME280;65074;50.436;8.672;2022-11-25T13:18:49;99615.09;;;9.38;98.58
76257;BME280;65074;50.436;8.672;2022-11-25T13:21:16;99615.09;;;9.38;99.26
76257;BME280;65074;50.436;8.672;2022-11-25T13:23:48;99616.56;;;9.57;96.97
76257;BME280;65074;50.436;8.672;2022-11-25T13:32:11;99620.28;;;9.67;96.56
76257;BME280;65074;50.436;8.672;2022-11-25T13:34:49;99631.34;;;9.82;95.99
76257;BME280;65074;50.436;8.672;2022-11-25T13:37:36;99642.81;;;9.66;96.94
76257;BME280;65074;50.436;8.672;2022-11-25T13:42:47;99651.63;;;9.27;98.24
76257;BME280;65074;50.436;8.672;2022-11-25T13:45:34;99652.28;;;9.11;99.23
76257;BME280;65074;50.436;8.672;2022-11-25T13:48:27;99651.59;;;9.04;99.08
76257;BME280;65074;50.436;8.672;2022-11-25T13:51:24;99655.34;;;9.03;98.93
76257;BME280;65074;50.436;8.672;2022-11-25T13:53:57;99661.06;;;8.95;99.09
76257;BME280;65074;50.436;8.672;2022-11-25T13:56:29;99662.78;;;8.78;99.31
76257;BME280;65074;50.436;8.672;2022-11-25T14:01:52;99659.69;;;8.63;100.00
76257;BME280;65074;50.436;8.672;2022-11-25T14:04:29;99667.41;;;8.59;100.00
76257;BME280;65074;50.436;8.672;2022-11-25T14:10:02;99673.66;;;8.53;100.00
76257;BME280;65074;50.436;8.672;2022-11-25T14:20:47;99686.50;;;8.51;100.00
76257;BME280;65074;50.436;8.672;2022-11-25T14:26:34;99681.97;;;8.63;100.00
76257;BME280;65074;50.436;8.672;2022-11-25T14:29:05;99684.78;;;8.68;100.00
76257;BME280;65074;50.436;8.672;2022-11-25T14:31:39;99695.84;;;8.60;100.00
76257;BME280;65074;50.436;8.672;2022-11-25T14:34:13;99695.56;;;8.50;100.00
76257;BME280;65074;50.436;8.672;2022-11-25T14:36:44;99699.38;;;8.42;100.00
76257;BME280;65074;50.436;8.672;2022-11-25T14:41:56;99703.53;;;8.27;100.00